createdAt,value
2023-05-15T00:00:40.566Z,100.00
2023-05-15T00:03:21.385Z,100.00
2023-05-15T00:06:08.612Z,100.00
2023-05-15T00:08:48.702Z,100.00
2023-05-15T00:11:35.518Z,100.00
2023-05-15T00:14:15.562Z,100.00
2023-05-15T00:17:02.533Z,100.00
2023-05-15T00:19:42.625Z,100.00
2023-05-15T00:22:29.451Z,100.00
2023-05-15T00:25:16.573Z,100.00
2023-05-15T00:28:03.479Z,100.00
2023-05-15T00:30:43.636Z,100.00
2023-05-15T00:33:30.496Z,100.00
2023-05-15T00:36:10.750Z,100.00
2023-05-15T00:38:57.519Z,100.00
2023-05-15T00:41:52.421Z,100.00
2023-05-15T00:44:40.474Z,100.00
2023-05-15T00:47:29.478Z,100.00
2023-05-15T00:50:10.560Z,100.00
2023-05-15T00:52:57.518Z,100.00
2023-05-15T00:55:45.442Z,100.00
2023-05-15T00:58:28.938Z,100.00
2023-05-15T01:01:15.575Z,100.00
2023-05-15T01:04:02.520Z,100.00
2023-05-15T01:06:43.539Z,100.00
2023-05-15T01:09:32.464Z,100.00
2023-05-15T01:12:16.133Z,100.00
2023-05-15T01:15:03.380Z,100.00
2023-05-15T01:17:43.881Z,100.00
2023-05-15T01:20:32.419Z,100.00
2023-05-15T01:23:20.601Z,100.00
2023-05-15T01:26:24.483Z,100.00
2023-05-15T01:29:13.037Z,100.00
2023-05-15T01:32:04.486Z,100.00
2023-05-15T01:34:53.645Z,100.00
2023-05-15T01:37:43.495Z,100.00
2023-05-15T01:40:33.484Z,100.00
2023-05-15T01:43:27.581Z,100.00
2023-05-15T01:46:08.405Z,100.00
2023-05-15T01:48:51.249Z,100.00
2023-05-15T01:51:41.443Z,100.00
2023-05-15T01:54:29.497Z,100.00
2023-05-15T01:57:09.525Z,100.00
2023-05-15T01:59:58.504Z,100.00
2023-05-15T02:02:55.540Z,100.00
2023-05-15T02:05:36.310Z,100.00
2023-05-15T02:08:25.392Z,100.00
2023-05-15T02:11:06.783Z,100.00
2023-05-15T02:13:54.396Z,100.00
2023-05-15T02:16:35.320Z,100.00
2023-05-15T02:19:22.411Z,100.00
2023-05-15T02:22:02.879Z,100.00
2023-05-15T02:24:49.425Z,100.00
2023-05-15T02:27:35.794Z,100.00
2023-05-15T02:30:45.470Z,100.00
2023-05-15T02:33:38.357Z,100.00
2023-05-15T02:36:24.553Z,100.00
2023-05-15T02:39:12.342Z,100.00
2023-05-15T02:42:07.412Z,100.00
2023-05-15T02:44:55.331Z,100.00
2023-05-15T02:47:40.723Z,100.00
2023-05-15T02:50:27.335Z,100.00
2023-05-15T02:53:14.529Z,100.00
2023-05-15T02:56:01.357Z,100.00
2023-05-15T02:58:41.496Z,100.00
2023-05-15T03:01:28.349Z,100.00
2023-05-15T03:04:08.538Z,100.00
2023-05-15T03:06:55.332Z,100.00
2023-05-15T03:09:42.346Z,100.00
2023-05-15T03:12:22.664Z,100.00
2023-05-15T03:15:09.330Z,100.00
2023-05-15T03:17:49.924Z,100.00
2023-05-15T03:20:36.268Z,100.00
2023-05-15T03:23:23.331Z,100.00
2023-05-15T03:26:10.244Z,100.00
2023-05-15T03:28:51.158Z,100.00
2023-05-15T03:31:38.309Z,100.00
2023-05-15T03:34:25.306Z,100.00
2023-05-15T03:37:05.409Z,100.00
2023-05-15T03:39:52.346Z,100.00
2023-05-15T03:42:32.411Z,100.00
2023-05-15T03:45:19.315Z,100.00
2023-05-15T03:47:59.449Z,100.00
2023-05-15T03:50:47.292Z,100.00
2023-05-15T03:53:27.462Z,100.00
2023-05-15T03:56:14.311Z,100.00
2023-05-15T03:58:54.362Z,100.00
2023-05-15T04:01:55.401Z,100.00
2023-05-15T04:04:48.326Z,100.00
2023-05-15T04:07:35.275Z,100.00
2023-05-15T04:10:15.378Z,100.00
2023-05-15T04:13:02.219Z,100.00
2023-05-15T04:15:42.439Z,100.00
2023-05-15T04:18:29.321Z,100.00
2023-05-15T04:21:09.408Z,100.00
2023-05-15T04:23:56.284Z,100.00
2023-05-15T04:26:36.807Z,100.00
2023-05-15T04:29:23.232Z,100.00
2023-05-15T04:32:10.398Z,100.00
2023-05-15T04:34:50.671Z,99.51
2023-05-15T04:37:37.215Z,99.79
2023-05-15T04:40:18.110Z,99.30
2023-05-15T04:43:05.203Z,98.06
2023-05-15T04:45:45.705Z,97.53
2023-05-15T04:48:32.233Z,95.77
2023-05-15T04:51:19.253Z,95.76
2023-05-15T04:53:59.354Z,95.61
2023-05-15T04:56:46.205Z,94.66
2023-05-15T04:59:35.205Z,94.67
2023-05-15T05:02:22.162Z,95.69
2023-05-15T05:05:09.349Z,95.49
2023-05-15T05:07:51.652Z,96.04
2023-05-15T05:10:38.242Z,95.28
2023-05-15T05:13:25.208Z,94.91
2023-05-15T05:16:05.406Z,95.07
2023-05-15T05:18:52.278Z,94.38
2023-05-15T05:21:32.769Z,94.56
2023-05-15T05:24:19.163Z,93.58
2023-05-15T05:27:06.130Z,91.41
2023-05-15T05:29:53.133Z,90.24
2023-05-15T05:32:40.209Z,86.71
2023-05-15T05:35:27.229Z,83.75
2023-05-15T05:38:07.268Z,81.88
2023-05-15T05:40:54.173Z,82.75
2023-05-15T05:43:41.244Z,82.47
2023-05-15T05:46:21.175Z,81.92
2023-05-15T05:49:08.084Z,80.67
2023-05-15T05:51:55.173Z,79.19
2023-05-15T05:54:35.519Z,78.39
2023-05-15T05:57:23.138Z,76.60
2023-05-15T06:00:06.229Z,77.72
2023-05-15T06:02:54.292Z,75.45
2023-05-15T06:05:34.927Z,73.46
2023-05-15T06:08:22.095Z,76.55
2023-05-15T06:11:10.157Z,77.70
2023-05-15T06:13:57.114Z,76.25
2023-05-15T06:16:37.547Z,72.60
2023-05-15T06:19:24.129Z,74.16
2023-05-15T06:22:11.103Z,75.30
2023-05-15T06:24:51.169Z,74.72
2023-05-15T06:27:39.081Z,68.98
2023-05-15T06:30:19.214Z,69.53
2023-05-15T06:33:06.083Z,65.49
2023-05-15T06:35:46.287Z,62.31
2023-05-15T06:38:33.083Z,61.56
2023-05-15T06:41:13.160Z,57.29
2023-05-15T06:44:00.103Z,75.72
2023-05-15T06:46:40.196Z,69.98
2023-05-15T06:49:27.067Z,66.77
2023-05-15T06:52:07.118Z,67.17
2023-05-15T06:54:54.031Z,66.75
2023-05-15T06:57:34.442Z,58.13
2023-05-15T07:00:20.987Z,56.43
2023-05-15T07:03:08.070Z,55.27
2023-05-15T07:05:55.043Z,51.00
2023-05-15T07:08:35.363Z,53.09
2023-05-15T07:11:22.016Z,54.52
2023-05-15T07:14:09.064Z,58.52
2023-05-15T07:16:56.061Z,61.50
2023-05-15T07:19:36.147Z,58.13
2023-05-15T07:22:23.013Z,59.10
2023-05-15T07:25:10.061Z,60.38
2023-05-15T07:40:47.434Z,56.58
2023-05-15T07:43:27.840Z,55.20
2023-05-15T07:46:14.383Z,53.65
2023-05-15T07:49:04.359Z,50.63
2023-05-15T07:51:51.439Z,50.99
2023-05-15T07:54:38.286Z,53.14
2023-05-15T07:57:18.449Z,53.80
2023-05-15T08:00:05.294Z,55.72
2023-05-15T08:02:47.483Z,53.28
2023-05-15T08:05:34.318Z,52.17
2023-05-15T08:08:14.537Z,50.30
2023-05-15T08:11:01.243Z,45.01
2023-05-15T08:13:41.446Z,46.34
2023-05-15T08:16:28.358Z,47.02
2023-05-15T08:19:10.417Z,48.88
2023-05-15T08:21:58.327Z,48.15
2023-05-15T08:24:38.412Z,49.93
2023-05-15T08:27:25.222Z,49.22
2023-05-15T08:30:05.435Z,48.55
2023-05-15T08:32:53.325Z,46.82
2023-05-15T08:35:33.490Z,45.36
2023-05-15T08:38:20.345Z,44.75
2023-05-15T08:41:25.886Z,43.43
2023-05-15T08:44:17.279Z,40.56
2023-05-15T08:47:05.258Z,39.77
2023-05-15T08:50:17.553Z,36.82
2023-05-15T08:53:07.274Z,33.04
2023-05-15T08:55:48.290Z,33.12
2023-05-15T08:58:35.351Z,33.64
2023-05-15T09:01:22.194Z,35.96
2023-05-15T09:04:11.273Z,35.28
2023-05-15T09:06:54.359Z,33.95
2023-05-15T09:09:42.252Z,34.48
2023-05-15T09:12:23.432Z,37.88
2023-05-15T09:15:22.243Z,41.91
2023-05-15T09:18:03.578Z,44.38
2023-05-15T09:20:54.122Z,42.06
2023-05-15T09:23:43.293Z,44.71
2023-05-15T09:26:24.097Z,44.18
2023-05-15T09:29:18.669Z,46.09
2023-05-15T09:32:07.283Z,47.12
2023-05-15T09:34:56.176Z,48.24
2023-05-15T09:37:36.783Z,48.86
2023-05-15T09:40:27.223Z,42.19
2023-05-15T09:43:17.208Z,40.38
2023-05-15T09:46:04.392Z,35.78
2023-05-15T09:48:51.227Z,34.48
2023-05-15T09:51:31.389Z,35.61
2023-05-15T09:54:25.156Z,32.48
2023-05-15T09:57:16.546Z,31.42
2023-05-15T10:00:17.159Z,34.46
2023-05-15T10:03:04.164Z,33.12
2023-05-15T10:05:44.756Z,31.70
2023-05-15T10:08:41.135Z,34.07
2023-05-15T10:11:23.947Z,34.50
2023-05-15T10:14:13.222Z,31.53
2023-05-15T10:17:02.202Z,39.39
2023-05-15T10:19:56.824Z,44.67
2023-05-15T10:22:39.311Z,43.07
2023-05-15T10:26:01.151Z,42.67
2023-05-15T10:28:44.794Z,42.04
2023-05-15T10:31:33.189Z,42.75
2023-05-15T10:34:14.513Z,46.76
2023-05-15T10:37:02.109Z,45.84
2023-05-15T10:39:44.212Z,47.88
2023-05-15T10:42:33.169Z,48.12
2023-05-15T10:45:15.376Z,45.83
2023-05-15T10:48:03.198Z,43.73
2023-05-15T10:50:44.398Z,40.93
2023-05-15T10:53:31.132Z,44.94
2023-05-15T10:56:11.264Z,43.95
2023-05-15T10:59:01.163Z,42.18
2023-05-15T11:01:50.198Z,37.63
2023-05-15T11:04:33.581Z,41.91
2023-05-15T11:07:31.137Z,42.70
2023-05-15T11:10:29.999Z,42.94
2023-05-15T11:13:17.152Z,48.82
2023-05-15T11:16:04.229Z,46.61
2023-05-15T11:18:44.410Z,54.12
2023-05-15T11:21:24.524Z,55.89
2023-05-15T11:24:18.102Z,55.82
2023-05-15T11:27:07.176Z,57.02
2023-05-15T11:30:27.176Z,60.38
2023-05-15T11:33:10.549Z,61.20
2023-05-15T11:36:13.028Z,64.43
2023-05-15T11:39:00.038Z,62.96
2023-05-15T11:41:40.173Z,63.26
2023-05-15T11:44:31.101Z,64.25
2023-05-15T11:47:12.169Z,63.70
2023-05-15T11:50:00.076Z,63.82
2023-05-15T11:52:40.126Z,62.40
2023-05-15T11:55:27.997Z,62.78
2023-05-15T11:58:16.039Z,62.83
2023-05-15T12:01:04.147Z,62.23
2023-05-15T12:03:44.489Z,62.84
2023-05-15T12:06:24.488Z,64.16
2023-05-15T12:09:10.970Z,64.40
2023-05-15T12:11:59.057Z,65.52
2023-05-15T12:14:39.080Z,66.00
2023-05-15T12:17:26.083Z,66.73
2023-05-15T12:20:07.128Z,66.10
2023-05-15T12:22:54.011Z,69.33
2023-05-15T12:25:34.137Z,68.72
2023-05-15T12:28:21.958Z,69.66
2023-05-15T12:31:09.121Z,68.44
2023-05-15T12:33:49.567Z,67.96
2023-05-15T12:36:38.042Z,66.28
2023-05-15T12:39:31.969Z,66.94
2023-05-15T12:42:19.043Z,67.26
2023-05-15T12:45:00.996Z,65.47
2023-05-15T12:47:42.901Z,67.67
2023-05-15T12:50:25.078Z,68.11
2023-05-15T12:53:09.097Z,69.56
2023-05-15T12:55:57.926Z,71.22
2023-05-15T12:58:44.952Z,70.38
2023-05-15T13:01:26.695Z,68.51
2023-05-15T13:04:13.962Z,68.99
2023-05-15T13:06:54.367Z,68.37
2023-05-15T13:09:41.928Z,68.51
2023-05-15T13:12:23.873Z,68.31
2023-05-15T13:15:10.944Z,69.29
2023-05-15T13:18:08.512Z,69.43
2023-05-15T13:20:58.946Z,70.30
2023-05-15T13:23:39.309Z,69.53
2023-05-15T13:26:25.897Z,69.09
2023-05-15T13:29:06.347Z,70.25
2023-05-15T13:31:52.987Z,68.29
2023-05-15T13:34:39.914Z,71.25
2023-05-15T13:37:26.882Z,69.17
2023-05-15T13:40:17.850Z,70.16
2023-05-15T13:42:58.024Z,69.63
2023-05-15T13:45:44.889Z,69.91
2023-05-15T13:48:24.976Z,69.57
2023-05-15T13:51:11.865Z,67.96
2023-05-15T13:53:52.079Z,68.67
2023-05-15T13:56:38.891Z,67.79
2023-05-15T13:59:19.013Z,67.15
2023-05-15T14:02:05.863Z,68.44
2023-05-15T14:04:45.977Z,66.74
2023-05-15T14:07:32.844Z,68.13
2023-05-15T14:10:20.900Z,68.07
2023-05-15T14:13:07.991Z,66.63
2023-05-15T14:15:47.850Z,68.53
2023-05-15T14:18:29.531Z,69.21
2023-05-15T14:21:17.855Z,69.55
2023-05-15T14:23:58.290Z,68.84
2023-05-15T14:26:44.902Z,68.28
2023-05-15T14:29:31.833Z,69.20
2023-05-15T14:32:12.029Z,71.46
2023-05-15T14:34:58.848Z,71.25
2023-05-15T14:37:39.057Z,72.06
2023-05-15T14:40:26.141Z,73.23
2023-05-15T14:43:06.245Z,72.82
2023-05-15T14:45:52.914Z,70.52
2023-05-15T14:48:33.974Z,71.72
2023-05-15T14:51:20.792Z,73.37
2023-05-15T14:54:00.952Z,73.44
2023-05-15T14:56:47.808Z,72.61
2023-05-15T14:59:34.828Z,72.90
2023-05-15T15:02:15.391Z,72.55
2023-05-15T15:05:01.797Z,72.91
2023-05-15T15:08:05.334Z,73.91
2023-05-15T15:10:53.827Z,72.49
2023-05-15T15:13:34.250Z,72.38
2023-05-15T15:16:20.864Z,70.39
2023-05-15T15:19:07.908Z,70.77
2023-05-15T15:21:47.945Z,69.45
2023-05-15T15:24:35.761Z,69.37
2023-05-15T15:27:15.928Z,70.59
2023-05-15T15:30:02.902Z,70.21
2023-05-15T15:32:44.667Z,68.43
2023-05-15T15:35:31.796Z,69.06
2023-05-15T15:38:13.445Z,68.45
2023-05-15T15:41:00.784Z,68.95
2023-05-15T15:43:41.031Z,69.36
2023-05-15T15:46:27.825Z,70.58
2023-05-15T15:49:08.085Z,70.00
2023-05-15T15:51:54.740Z,70.44
2023-05-15T15:54:34.810Z,71.71
2023-05-15T15:57:22.779Z,71.35
2023-05-15T16:00:02.862Z,71.91
2023-05-15T16:02:49.817Z,71.67
2023-05-15T16:05:30.037Z,71.83
2023-05-15T16:08:16.753Z,71.49
2023-05-15T16:11:03.716Z,72.00
2023-05-15T16:13:50.728Z,70.65
2023-05-15T16:16:30.922Z,71.52
2023-05-15T16:19:17.740Z,72.09
2023-05-15T16:22:04.678Z,72.03
2023-05-15T16:24:45.109Z,73.00
2023-05-15T16:27:31.708Z,72.59
2023-05-15T16:30:19.796Z,72.83
2023-05-15T16:32:59.818Z,72.29
2023-05-15T16:35:46.681Z,72.62
2023-05-15T16:38:33.721Z,73.29
2023-05-15T16:41:21.629Z,73.71
2023-05-15T16:44:01.715Z,71.88
2023-05-15T16:46:42.171Z,71.64
2023-05-15T16:49:28.705Z,70.81
2023-05-15T16:52:15.875Z,71.03
2023-05-15T16:54:55.691Z,71.20
2023-05-15T16:57:42.712Z,72.03
2023-05-15T17:00:22.828Z,72.21
2023-05-15T17:03:11.828Z,72.61
2023-05-15T17:05:52.784Z,73.79
2023-05-15T17:08:41.708Z,74.92
2023-05-15T17:11:21.865Z,75.01
2023-05-15T17:14:08.598Z,73.36
2023-05-15T17:16:48.877Z,73.73
2023-05-15T17:19:35.651Z,73.64
2023-05-15T17:22:15.804Z,74.39
2023-05-15T17:25:02.620Z,74.76
2023-05-15T17:27:42.804Z,74.65
2023-05-15T17:30:29.636Z,75.36
2023-05-15T17:33:09.932Z,76.09
2023-05-15T17:35:56.590Z,77.25
2023-05-15T17:38:43.610Z,77.07
2023-05-15T17:41:30.790Z,77.49
2023-05-15T17:44:11.575Z,77.69
2023-05-15T17:46:58.736Z,77.40
2023-05-15T17:49:45.603Z,78.42
2023-05-15T17:52:26.020Z,78.78
2023-05-15T17:55:12.595Z,78.04
2023-05-15T17:57:59.557Z,77.26
2023-05-15T18:00:46.607Z,78.46
2023-05-15T18:03:34.439Z,79.40
2023-05-15T18:06:15.585Z,80.06
2023-05-15T18:09:02.674Z,80.11
2023-05-15T18:11:42.707Z,81.02
2023-05-15T18:14:29.577Z,81.37
2023-05-15T18:17:09.722Z,81.30
2023-05-15T18:19:56.521Z,81.35
2023-05-15T18:22:43.609Z,81.49
2023-05-15T18:25:31.784Z,83.71
2023-05-15T18:28:11.537Z,84.90
2023-05-15T18:30:58.578Z,85.54
2023-05-15T18:33:40.788Z,86.39
2023-05-15T18:36:27.566Z,86.92
2023-05-15T18:39:07.684Z,86.63
2023-05-15T18:41:54.510Z,87.35
2023-05-15T18:44:42.513Z,87.29
2023-05-15T18:47:29.582Z,87.51
2023-05-15T18:50:09.756Z,87.69
2023-05-15T18:52:56.519Z,87.45
2023-05-15T18:55:36.714Z,87.90
2023-05-15T18:58:23.491Z,87.96
2023-05-15T19:01:03.778Z,87.81
2023-05-15T19:03:50.608Z,87.25
2023-05-15T19:06:31.120Z,87.61
2023-05-15T19:09:17.533Z,87.53
2023-05-15T19:11:57.676Z,87.55
2023-05-15T19:14:44.498Z,87.85
2023-05-15T19:17:24.685Z,87.45
2023-05-15T19:20:12.508Z,87.81
2023-05-15T19:22:59.449Z,87.69
2023-05-15T19:25:46.477Z,87.20
2023-05-15T19:28:26.592Z,87.71
2023-05-15T19:42:34.597Z,91.63
2023-05-15T19:45:14.916Z,91.21
2023-05-15T19:48:01.632Z,90.99
2023-05-15T19:50:48.578Z,90.71
2023-05-15T19:53:28.683Z,90.79
2023-05-15T19:56:15.599Z,90.21
2023-05-15T19:58:55.736Z,90.31
2023-05-15T20:01:42.565Z,90.78
2023-05-15T20:04:29.516Z,92.07
2023-05-15T20:07:16.486Z,91.96
2023-05-15T20:09:56.621Z,92.52
2023-05-15T20:12:43.573Z,92.12
2023-05-15T20:15:23.632Z,92.68
2023-05-15T20:18:10.544Z,94.15
2023-05-15T20:20:59.511Z,94.90
2023-05-15T20:23:46.491Z,95.97
2023-05-15T20:26:26.656Z,96.15
2023-05-15T20:29:13.494Z,96.56
2023-05-15T20:31:53.787Z,96.73
2023-05-15T20:34:42.771Z,96.42
2023-05-15T20:37:27.277Z,96.84
2023-05-15T20:40:22.545Z,97.04
2023-05-15T20:43:03.000Z,96.59
2023-05-15T20:45:49.561Z,96.73
2023-05-15T20:48:29.929Z,97.18
2023-05-15T20:51:16.468Z,97.45
2023-05-15T20:53:57.172Z,97.09
2023-05-15T20:56:43.475Z,97.16
2023-05-15T20:59:30.453Z,97.36
2023-05-15T21:02:17.467Z,97.98
2023-05-15T21:04:57.828Z,97.54
2023-05-15T21:07:44.518Z,97.88
2023-05-15T21:10:25.094Z,97.69
2023-05-15T21:13:12.538Z,98.00
2023-05-15T21:15:53.405Z,97.71
2023-05-15T21:18:40.484Z,98.02
2023-05-15T21:21:27.379Z,98.70
2023-05-15T21:24:08.609Z,98.47
2023-05-15T21:26:55.426Z,98.51
2023-05-15T21:29:35.609Z,98.86
2023-05-15T21:32:22.422Z,98.92
2023-05-15T21:35:09.428Z,99.34
2023-05-15T21:37:56.476Z,99.05
2023-05-15T21:40:43.410Z,99.48
2023-05-15T21:43:37.486Z,100.00
2023-05-15T21:46:17.834Z,100.00
2023-05-15T21:49:04.454Z,100.00
2023-05-15T21:51:51.521Z,100.00
2023-05-15T21:54:31.497Z,99.73
2023-05-15T21:57:12.236Z,99.62
2023-05-15T21:59:59.491Z,99.92
2023-05-15T22:02:39.933Z,100.00
2023-05-15T22:05:26.434Z,100.00
2023-05-15T22:08:06.774Z,99.88
2023-05-15T22:10:53.378Z,100.00
2023-05-15T22:13:40.428Z,100.00
2023-05-15T22:16:20.623Z,100.00
2023-05-15T22:19:08.801Z,100.00
2023-05-15T22:21:58.363Z,100.00
2023-05-15T22:24:38.730Z,100.00
2023-05-15T22:27:25.405Z,100.00
2023-05-15T22:30:06.869Z,100.00
2023-05-15T22:32:53.409Z,100.00
2023-05-15T22:35:40.353Z,100.00
2023-05-15T22:38:27.388Z,100.00
2023-05-15T22:41:14.691Z,100.00
2023-05-15T22:43:54.372Z,100.00
2023-05-15T22:46:34.816Z,100.00
2023-05-15T22:49:25.479Z,100.00
2023-05-15T22:52:14.049Z,100.00
2023-05-15T22:54:54.477Z,100.00
2023-05-15T22:57:41.714Z,100.00
2023-05-15T23:00:28.706Z,100.00
2023-05-15T23:03:15.438Z,100.00
2023-05-15T23:06:02.330Z,100.00
2023-05-15T23:08:42.765Z,100.00
2023-05-15T23:11:29.334Z,100.00
2023-05-15T23:14:16.371Z,100.00
2023-05-15T23:16:56.409Z,100.00
2023-05-15T23:19:43.363Z,100.00
2023-05-15T23:22:23.582Z,100.00
2023-05-15T23:25:11.331Z,100.00
2023-05-15T23:27:58.336Z,100.00
2023-05-15T23:30:38.748Z,100.00
2023-05-15T23:33:25.360Z,100.00
2023-05-15T23:36:06.296Z,100.00
2023-05-15T23:38:53.279Z,100.00
2023-05-15T23:41:47.290Z,100.00
2023-05-15T23:44:27.754Z,100.00
2023-05-15T23:47:14.331Z,100.00
2023-05-15T23:50:01.309Z,100.00
2023-05-15T23:52:41.516Z,100.00
2023-05-15T23:55:28.308Z,100.00
2023-05-15T23:58:15.263Z,100.00
